Time;durP1;ratioP1;P1;durP2;ratioP2;P2;SDS_P1;SDS_P2;PMS_P1;PMS_P2;Temp;Humidity;BMP_temperature;BMP_pressure;BME280_temperature;BME280_humidity;BME280_pressure;Samples;Min_cycle;Max_cycle;Signal;HPM_P1;HPM_P2
2021/04/03 00:00:39;;;;;;;14.15;2.53;;;;;;;3.04;100.00;101643.31;5008359;28;20129;-78
2021/04/03 00:03:42;;;;;;;4.18;2.72;;;;;;;3.32;100.00;101636.41;5008876;28;20080;-78
2021/04/03 00:06:46;;;;;;;1.67;1.60;;;;;;;3.46;100.00;101631.03;5008795;28;20084;-78
2021/04/03 00:09:49;;;;;;;17.85;2.35;;;;;;;3.57;100.00;101627.13;5005916;28;20065;-79
2021/04/03 00:12:53;;;;;;;3.30;1.33;;;;;;;3.72;100.00;101633.53;5008742;28;20077;-78
2021/04/03 00:15:57;;;;;;;1.10;1.10;;;;;;;3.82;100.00;101641.06;5008758;28;20069;-77
2021/04/03 00:19:00;;;;;;;1.55;1.45;;;;;;;3.87;100.00;101646.22;5008967;28;20061;-78
2021/04/03 00:22:04;;;;;;;1.23;1.13;;;;;;;3.88;100.00;101634.00;5020162;28;20472;-77
2021/04/03 00:25:09;;;;;;;1.75;1.70;;;;;;;3.93;100.00;101633.63;5027125;28;20056;-77
2021/04/03 00:28:12;;;;;;;1.10;1.10;;;;;;;4.03;100.00;101632.13;5025600;28;20064;-76
2021/04/03 00:31:18;;;;;;;2.00;1.77;;;;;;;4.03;100.00;101627.38;5026944;28;20525;-76
2021/04/03 00:34:21;;;;;;;10.15;2.38;;;;;;;4.03;100.00;101619.09;5026566;28;20095;-76
2021/04/03 00:37:25;;;;;;;5.47;1.48;;;;;;;4.02;100.00;101625.00;5027409;28;20147;-77
2021/04/03 00:40:30;;;;;;;1.40;1.25;;;;;;;4.02;100.00;101625.81;5027161;28;20064;-76
2021/04/03 00:43:33;;;;;;;1.17;1.15;;;;;;;3.98;100.00;101616.75;5027306;28;20060;-76
2021/04/03 00:46:37;;;;;;;2.38;1.48;;;;;;;3.95;100.00;101614.75;5027585;28;20068;-76
2021/04/03 00:49:44;;;;;;;1.02;0.88;;;;;;;3.95;100.00;101617.50;5027229;28;20056;-75
2021/04/03 00:52:48;;;;;;;1.60;1.35;;;;;;;3.92;100.00;101615.50;5027056;28;20064;-77
2021/04/03 00:55:52;;;;;;;1.30;1.20;;;;;;;4.01;100.00;101628.94;5026999;28;20402;-76
2021/04/03 00:58:57;;;;;;;1.88;1.77;;;;;;;4.11;100.00;101617.97;5027122;28;20104;-76
2021/04/03 01:02:00;;;;;;;2.42;1.58;;;;;;;4.15;100.00;101613.25;5029477;28;20417;-77
2021/04/03 01:05:10;;;;;;;1.52;1.42;;;;;;;4.18;100.00;101601.44;5028425;28;20409;-76
2021/04/03 01:08:13;;;;;;;1.77;1.52;;;;;;;4.25;100.00;101597.91;5029917;28;20065;-77
2021/04/03 01:11:18;;;;;;;18.52;2.05;;;;;;;4.27;100.00;101595.53;5029903;28;20060;-77
2021/04/03 01:14:42;;;;;;;1.02;1.02;;;;;;;4.30;100.00;101589.25;5032912;28;20056;-77
2021/04/03 01:18:00;;;;;;;1.08;1.08;;;;;;;4.26;100.00;101592.03;5033923;28;20056;-77
2021/04/03 01:21:07;;;;;;;4.18;1.65;;;;;;;4.18;100.00;101590.41;5032613;28;20072;-77
2021/04/03 01:24:21;;;;;;;1.40;1.33;;;;;;;4.12;100.00;101594.72;5027787;28;20083;-77
2021/04/03 01:27:27;;;;;;;1.67;1.58;;;;;;;4.08;100.00;101584.84;5032976;28;20064;-77
2021/04/03 01:30:32;;;;;;;1.35;1.30;;;;;;;3.99;100.00;101576.97;5034147;28;20539;-78
2021/04/03 01:33:38;;;;;;;1.55;1.52;;;;;;;3.96;100.00;101572.25;5034620;28;20061;-77
2021/04/03 01:36:43;;;;;;;2.28;2.17;;;;;;;3.98;100.00;101586.41;5032521;28;20064;-77
2021/04/03 01:39:50;;;;;;;1.05;1.05;;;;;;;3.99;100.00;101587.19;5033412;28;20143;-77
2021/04/03 01:43:08;;;;;;;2.90;1.23;;;;;;;4.02;100.00;101598.25;5033143;28;20108;-77
2021/04/03 01:46:15;;;;;;;7.25;1.92;;;;;;;4.00;100.00;101584.06;5029441;28;20057;-78
2021/04/03 01:49:23;;;;;;;21.15;2.53;;;;;;;4.00;100.00;101586.81;5029424;28;20061;-77
2021/04/03 01:52:32;;;;;;;1.65;1.42;;;;;;;4.02;100.00;101578.16;5033157;28;20060;-75
2021/04/03 01:55:37;;;;;;;1.40;1.40;;;;;;;3.99;100.00;101576.97;5032877;28;20068;-78
2021/04/03 01:58:41;;;;;;;2.50;1.92;;;;;;;3.93;100.00;101570.25;5032430;28;20068;-78
2021/04/03 02:01:47;;;;;;;1.20;1.20;;;;;;;3.83;100.00;101562.75;5032785;28;20421;-77
2021/04/03 02:04:52;;;;;;;1.65;1.50;;;;;;;3.68;100.00;101561.09;5026082;28;20076;-78
2021/04/03 02:07:57;;;;;;;20.48;1.23;;;;;;;3.60;100.00;101562.22;5025850;28;20069;-77
2021/04/03 02:11:06;;;;;;;1.67;1.58;;;;;;;3.53;100.00;101557.47;5032946;28;20453;-77
2021/04/03 02:14:11;;;;;;;6.20;2.28;;;;;;;3.46;100.00;101562.19;5028619;28;20064;-77
2021/04/03 02:17:17;;;;;;;6.30;1.35;;;;;;;3.41;100.00;101573.53;5032739;28;20072;-77
2021/04/03 02:20:21;;;;;;;3.92;3.13;;;;;;;3.34;100.00;101556.97;5032027;28;20065;-77
2021/04/03 02:23:27;;;;;;;1.15;1.05;;;;;;;3.36;100.00;101571.94;5012725;28;20064;-75
2021/04/03 02:26:35;;;;;;;1.80;1.42;;;;;;;3.31;100.00;101568.78;5012853;28;20112;-77
2021/04/03 02:29:39;;;;;;;11.45;1.92;;;;;;;3.20;100.00;101565.16;5012925;28;20056;-77
2021/04/03 02:32:47;;;;;;;2.78;1.38;;;;;;;3.04;100.00;101569.00;5012794;28;20060;-77
2021/04/03 02:35:50;;;;;;;1.13;1.13;;;;;;;2.86;100.00;101559.81;5012488;28;20109;-77
2021/04/03 02:38:54;;;;;;;1.42;1.42;;;;;;;2.71;100.00;101552.63;5012594;28;20541;-78
2021/04/03 02:42:15;;;;;;;1.70;1.60;;;;;;;2.72;100.00;101554.22;5012030;28;20076;-77
2021/04/03 02:45:21;;;;;;;1.40;1.27;;;;;;;2.68;100.00;101547.09;5011397;28;20057;-78
2021/04/03 02:48:28;;;;;;;1.15;1.08;;;;;;;2.67;100.00;101551.81;5012531;28;20053;-77
2021/04/03 02:51:41;;;;;;;2.33;1.98;;;;;;;2.59;100.00;101550.19;5012451;28;20065;-78
2021/04/03 02:54:47;;;;;;;9.93;1.55;;;;;;;2.48;100.00;101554.00;5011040;28;20056;-77
2021/04/03 02:57:52;;;;;;;3.40;2.45;;;;;;;2.43;100.00;101562.56;5010791;28;20125;-77
2021/04/03 03:00:58;;;;;;;1.00;1.00;;;;;;;2.41;100.00;101565.72;5012274;28;20073;-77
2021/04/03 03:04:02;;;;;;;1.10;0.88;;;;;;;2.48;100.00;101567.75;5011972;28;20077;-77
2021/04/03 03:07:07;;;;;;;1.52;1.52;;;;;;;2.47;100.00;101564.19;5012033;28;20065;-77
2021/04/03 03:10:21;;;;;;;1.42;1.30;;;;;;;2.42;100.00;101566.50;5011958;28;20069;-77
2021/04/03 03:13:25;;;;;;;1.35;1.35;;;;;;;2.33;100.00;101569.56;5008856;28;20053;-77
2021/04/03 03:16:30;;;;;;;2.17;1.77;;;;;;;2.19;100.00;101561.16;5011984;28;20068;-77
2021/04/03 03:19:33;;;;;;;1.33;1.33;;;;;;;2.16;100.00;101565.47;5011774;28;20569;-77
2021/04/03 03:22:37;;;;;;;2.30;1.65;;;;;;;2.12;100.00;101563.88;5027039;28;20098;-77
2021/04/03 03:25:40;;;;;;;1.63;1.50;;;;;;;2.07;100.00;101567.72;5031360;28;20513;-78
2021/04/03 03:28:48;;;;;;;1.15;1.15;;;;;;;2.03;100.00;101569.66;5031115;28;20414;-78
2021/04/03 03:31:51;;;;;;;1.83;1.73;;;;;;;2.01;100.00;101573.94;5031256;28;20064;-77
2021/04/03 03:34:55;;;;;;;7.50;1.40;;;;;;;2.06;100.00;101581.81;5031443;28;20525;-77
2021/04/03 03:37:59;;;;;;;3.63;1.95;;;;;;;2.25;100.00;101584.41;5031421;28;20065;-77
2021/04/03 03:41:04;;;;;;;11.57;2.35;;;;;;;2.42;100.00;101581.06;5031115;28;20064;-77
2021/04/03 03:44:09;;;;;;;4.53;1.85;;;;;;;2.65;100.00;101580.84;5031221;28;20064;-78
2021/04/03 03:47:12;;;;;;;6.70;2.58;;;;;;;2.87;100.00;101580.66;5030168;28;20054;-78
2021/04/03 03:50:16;;;;;;;2.05;1.10;;;;;;;2.96;100.00;101580.34;5030247;28;20060;-78
2021/04/03 03:53:19;;;;;;;6.50;1.40;;;;;;;3.01;100.00;101578.00;5030451;28;20084;-78
2021/04/03 03:56:23;;;;;;;13.00;1.42;;;;;;;3.11;100.00;101572.97;5030817;28;20060;-78
2021/04/03 03:59:26;;;;;;;1.10;1.00;;;;;;;3.20;100.00;101573.44;5031162;28;20116;-77
2021/04/03 04:02:30;;;;;;;1.38;1.38;;;;;;;3.25;100.00;101570.31;5030488;28;20056;-78
2021/04/03 04:05:33;;;;;;;0.95;0.95;;;;;;;3.27;100.00;101567.97;5030546;28;20064;-78
2021/04/03 04:08:37;;;;;;;2.08;1.42;;;;;;;3.32;100.00;101573.09;5030703;28;20065;-77
2021/04/03 04:11:41;;;;;;;3.15;1.80;;;;;;;3.32;100.00;101570.34;5030661;28;20459;-78
2021/04/03 04:14:44;;;;;;;6.60;2.92;;;;;;;3.28;100.00;101569.53;5030535;28;20080;-78
2021/04/03 04:17:47;;;;;;;4.40;1.23;;;;;;;3.21;100.00;101564.78;5030608;28;20080;-78
2021/04/03 04:20:51;;;;;;;1.45;1.35;;;;;;;3.18;100.00;101575.78;5029486;28;20449;-78
2021/04/03 04:23:54;;;;;;;1.67;1.67;;;;;;;3.13;100.00;101578.88;5023671;28;20524;-77
2021/04/03 04:26:58;;;;;;;2.90;2.15;;;;;;;3.10;100.00;101574.16;5030231;28;20072;-77
2021/04/03 04:30:12;;;;;;;1.88;1.77;;;;;;;3.15;100.00;101580.06;5024799;28;20064;-78
2021/04/03 04:33:15;;;;;;;1.50;1.40;;;;;;;3.13;100.00;101585.19;5026608;28;20056;-78
2021/04/03 04:36:19;;;;;;;17.20;2.50;;;;;;;3.12;100.00;101583.59;5026749;28;20525;-78
2021/04/03 04:39:22;;;;;;;1.45;1.35;;;;;;;3.17;100.00;101590.69;5030691;28;20072;-78
2021/04/03 04:42:26;;;;;;;4.60;1.45;;;;;;;3.17;100.00;101596.19;5030337;28;20068;-78
2021/04/03 04:45:30;;;;;;;2.38;1.67;;;;;;;3.15;100.00;101601.31;5030700;28;20509;-77
2021/04/03 04:48:34;;;;;;;7.30;1.63;;;;;;;3.10;100.00;101607.19;5029536;28;20082;-77
2021/04/03 04:51:37;;;;;;;3.67;1.38;;;;;;;3.11;100.00;101598.53;5030408;28;20176;-78
2021/04/03 04:54:41;;;;;;;4.50;1.65;;;;;;;3.16;100.00;101597.38;5030091;28;20069;-78
2021/04/03 04:57:44;;;;;;;3.13;1.45;;;;;;;3.08;100.00;101585.53;5022411;28;20154;-78
2021/04/03 05:00:48;;;;;;;11.40;2.00;;;;;;;3.10;100.00;101598.94;5030237;28;20065;-78
2021/04/03 05:03:51;;;;;;;5.88;1.70;;;;;;;3.15;100.00;101604.06;5030023;28;20068;-78
2021/04/03 05:06:54;;;;;;;0.93;0.93;;;;;;;3.20;100.00;101610.00;5029904;28;20053;-78
2021/04/03 05:09:58;;;;;;;9.68;1.80;;;;;;;3.28;100.00;101619.88;5030180;28;20064;-77
2021/04/03 05:13:03;;;;;;;2.90;1.05;;;;;;;3.39;100.00;101611.69;5023378;28;20065;-78
2021/04/03 05:16:06;;;;;;;1.45;1.35;;;;;;;3.47;100.00;101627.06;5024550;28;20073;-78
2021/04/03 05:19:10;;;;;;;3.67;1.02;;;;;;;3.52;100.00;101623.97;5025871;28;20068;-77
2021/04/03 05:22:13;;;;;;;0.93;0.93;;;;;;;3.58;100.00;101616.91;5029836;28;20088;-77
2021/04/03 05:25:17;;;;;;;10.65;2.03;;;;;;;3.63;100.00;101622.06;5026436;28;20060;-77
2021/04/03 05:28:20;;;;;;;3.33;1.98;;;;;;;3.66;100.00;101607.53;5028882;28;20524;-77
2021/04/03 05:31:24;;;;;;;6.38;2.05;;;;;;;3.68;100.00;101616.22;5030209;28;20060;-77
2021/04/03 05:34:27;;;;;;;1.63;1.13;;;;;;;3.66;100.00;101618.56;5030134;28;20117;-77
2021/04/03 05:37:31;;;;;;;5.75;1.75;;;;;;;3.70;100.00;101624.88;5030457;28;20064;-77
2021/04/03 05:40:34;;;;;;;12.70;2.35;;;;;;;3.70;100.00;101619.38;5030405;28;20156;-77
2021/04/03 05:43:39;;;;;;;12.50;2.85;;;;;;;3.72;100.00;101617.00;5029477;28;20061;-77
2021/04/03 05:46:43;;;;;;;8.43;1.52;;;;;;;3.74;100.00;101626.47;5028730;28;20502;-78
2021/04/03 05:49:48;;;;;;;6.25;2.85;;;;;;;3.76;100.00;101626.88;5028993;28;20410;-78
2021/04/03 05:52:51;;;;;;;8.20;3.67;;;;;;;3.80;100.00;101624.13;5029018;28;20417;-78
2021/04/03 05:55:56;;;;;;;3.55;2.28;;;;;;;3.83;100.00;101643.41;5029261;28;20060;-77
2021/04/03 05:58:59;;;;;;;4.40;1.85;;;;;;;3.86;100.00;101639.09;5028842;28;20069;-77
2021/04/03 06:02:05;;;;;;;1.67;1.58;;;;;;;3.90;100.00;101639.91;5026453;28;20075;-78
2021/04/03 06:05:09;;;;;;;8.98;1.88;;;;;;;3.90;100.00;101645.41;5033150;28;20060;-77
2021/04/03 06:08:13;;;;;;;3.95;2.55;;;;;;;3.93;100.00;101647.41;5029160;28;20060;-77
2021/04/03 06:11:19;;;;;;;2.13;2.03;;;;;;;3.99;100.00;101643.09;5032647;28;20248;-77
2021/04/03 06:14:22;;;;;;;3.22;2.20;;;;;;;4.03;100.00;101643.91;5032176;28;20056;-78
2021/04/03 06:17:26;;;;;;;1.50;1.50;;;;;;;4.05;100.00;101649.81;5032810;28;20453;-77
2021/04/03 06:20:29;;;;;;;6.18;1.90;;;;;;;4.08;100.00;101646.31;5032892;28;20061;-77
2021/04/03 06:23:33;;;;;;;0.65;0.65;;;;;;;4.14;100.00;101652.22;5011681;28;20533;-78
2021/04/03 06:26:37;;;;;;;1.38;1.27;;;;;;;4.18;100.00;101662.09;5015009;28;20172;-78
2021/04/03 06:29:45;;;;;;;1.48;1.17;;;;;;;4.20;100.00;101659.72;5012459;28;20060;-77
2021/04/03 06:32:50;;;;;;;10.75;1.95;;;;;;;4.21;100.00;101647.53;5012919;28;20081;-76
2021/04/03 06:36:14;;;;;;;1.27;1.15;;;;;;;4.23;100.00;101656.22;5005994;28;20414;-78
2021/04/03 06:39:18;;;;;;;4.22;1.88;;;;;;;4.25;100.00;101667.63;5012355;28;20052;-77
2021/04/03 06:42:51;;;;;;;1.67;1.20;;;;;;;4.40;100.00;101671.22;5011223;28;20057;-77
2021/04/03 06:45:54;;;;;;;10.95;1.60;;;;;;;4.51;100.00;101670.09;5005822;28;20065;-77
2021/04/03 06:49:00;;;;;;;4.30;1.45;;;;;;;4.61;100.00;101669.31;4991769;28;20065;-77
2021/04/03 06:52:04;;;;;;;24.63;1.88;;;;;;;4.67;100.00;101686.28;4998745;28;20057;-75
2021/04/03 06:55:13;;;;;;;1.90;1.80;;;;;;;4.70;100.00;101674.47;5011640;28;20061;-76
2021/04/03 06:58:16;;;;;;;1.00;0.90;;;;;;;4.70;100.00;101679.22;5008768;28;20081;-76
2021/04/03 07:01:25;;;;;;;1.73;1.25;;;;;;;4.69;100.00;101675.66;5011315;28;20069;-77
2021/04/03 07:04:39;;;;;;;22.13;2.47;;;;;;;4.71;100.00;101680.78;5016914;28;20052;-78
2021/04/03 07:07:44;;;;;;;1.58;1.35;;;;;;;4.71;100.00;101670.53;5021997;28;20065;-77
2021/04/03 07:10:48;;;;;;;2.08;1.98;;;;;;;4.74;100.00;101671.72;5020892;28;20065;-77
2021/04/03 07:13:52;;;;;;;8.80;2.60;;;;;;;4.77;100.00;101688.28;5024193;28;20052;-78
2021/04/03 07:16:57;;;;;;;3.15;1.35;;;;;;;4.81;100.00;101677.25;5028898;28;20057;-78
2021/04/03 07:20:01;;;;;;;26.08;2.80;;;;;;;4.88;100.00;101688.28;5025436;28;20065;-78
2021/04/03 07:23:08;;;;;;;2.00;1.73;;;;;;;4.95;100.00;101688.31;5006672;28;20073;-77
2021/04/03 07:26:15;;;;;;;3.65;1.45;;;;;;;5.02;100.00;101689.13;5011445;28;20064;-77
2021/04/03 07:29:45;;;;;;;4.90;2.50;;;;;;;5.11;100.00;101688.72;5007250;28;20383;-77
2021/04/03 07:32:48;;;;;;;6.47;1.75;;;;;;;5.12;100.00;101690.28;5018787;28;20069;-77
2021/04/03 07:35:54;;;;;;;2.47;1.77;;;;;;;5.16;100.00;101693.84;5022088;28;20076;-77
2021/04/03 07:38:58;;;;;;;1.13;1.02;;;;;;;5.20;100.00;101694.63;5021361;28;20054;-77
2021/04/03 07:42:02;;;;;;;4.45;1.60;;;;;;;5.22;100.00;101698.59;5021579;28;20057;-77
2021/04/03 07:45:32;;;;;;;2.13;1.35;;;;;;;5.23;100.00;101699.38;5016975;28;20414;-77
2021/04/03 07:48:39;;;;;;;14.38;2.15;;;;;;;5.31;100.00;101698.19;5028598;28;20062;-77
2021/04/03 07:51:44;;;;;;;1.65;1.17;;;;;;;5.35;100.00;101682.41;5019607;28;20168;-76
2021/04/03 07:54:48;;;;;;;13.40;1.77;;;;;;;5.37;100.00;101691.09;5018219;28;20069;-78
2021/04/03 07:57:52;;;;;;;2.30;1.30;;;;;;;5.43;100.00;101692.28;5023009;28;20549;-78
2021/04/03 08:00:58;;;;;;;4.22;1.52;;;;;;;5.51;100.00;101704.91;5028306;28;20516;-78
2021/04/03 08:04:04;;;;;;;13.88;2.53;;;;;;;5.59;100.00;101706.47;5017772;28;20060;-78
2021/04/03 08:07:08;;;;;;;2.72;0.82;;;;;;;5.66;100.00;101703.69;5012407;28;20064;-78
2021/04/03 08:10:18;;;;;;;7.68;1.25;;;;;;;5.68;100.00;101712.38;5014492;28;20061;-77
2021/04/03 08:13:22;;;;;;;5.43;2.33;;;;;;;5.67;100.00;101713.56;5020333;28;20418;-77
2021/04/03 08:16:30;;;;;;;0.40;0.30;;;;;;;5.69;100.00;101716.72;5010891;28;20061;-77
2021/04/03 08:19:35;;;;;;;5.10;0.82;;;;;;;5.73;100.00;101709.22;5010505;28;20057;-78
2021/04/03 08:23:00;;;;;;;5.80;1.05;;;;;;;5.77;100.00;101706.44;5010276;28;20073;-77
2021/04/03 08:26:05;;;;;;;7.32;0.95;;;;;;;5.84;100.00;101701.72;4997321;28;20069;-77
2021/04/03 08:29:20;;;;;;;0.20;0.20;;;;;;;5.97;100.00;101711.19;5010514;28;20529;-78
2021/04/03 08:32:23;;;;;;;0.60;0.60;;;;;;;6.08;100.00;101714.72;5010176;28;20060;-79
2021/04/03 08:35:29;;;;;;;1.48;0.80;;;;;;;6.20;100.00;101712.66;5010499;28;20414;-77
2021/04/03 08:38:32;;;;;;;4.15;0.55;;;;;;;6.29;100.00;101705.53;5010352;28;20061;-78
2021/04/03 08:41:38;;;;;;;8.32;0.80;;;;;;;6.45;100.00;101707.84;5010175;28;20057;-78
2021/04/03 08:44:43;;;;;;;9.38;0.95;;;;;;;6.63;100.00;101705.75;5010357;28;20069;-78
2021/04/03 08:47:50;;;;;;;3.70;1.92;;;;;;;6.72;100.00;101711.66;5010769;28;20513;-78
2021/04/03 08:50:53;;;;;;;2.15;0.75;;;;;;;6.77;100.00;101716.78;5002612;28;20061;-78
2021/04/03 08:54:00;;;;;;;7.80;1.02;;;;;;;6.82;100.00;101719.13;5010486;28;20521;-78
2021/04/03 08:57:19;;;;;;;1.20;0.88;;;;;;;6.83;100.00;101723.47;5009891;28;20448;-78
2021/04/03 09:00:24;;;;;;;0.90;0.63;;;;;;;6.88;100.00;101709.19;5010371;28;20065;-78
2021/04/03 09:03:27;;;;;;;1.25;1.17;;;;;;;6.90;100.00;101720.66;5001436;28;20065;-78
2021/04/03 09:06:52;;;;;;;1.48;0.75;;;;;;;6.86;100.00;101723.44;5015646;28;20064;-77
2021/04/03 09:10:07;;;;;;;4.32;1.27;;;;;;;6.97;100.00;101723.38;5010084;28;20061;-78
2021/04/03 09:13:14;;;;;;;3.47;0.95;;;;;;;7.11;100.00;101717.75;5010207;28;20065;-76
2021/04/03 09:16:17;;;;;;;2.20;1.23;;;;;;;7.19;100.00;101727.56;5009399;28;20065;-79
2021/04/03 09:19:34;;;;;;;6.00;1.35;;;;;;;7.25;100.00;101731.50;5009621;28;20065;-79
2021/04/03 09:22:42;;;;;;;1.00;0.70;;;;;;;7.31;100.00;101721.56;5026666;28;20072;-79
2021/04/03 09:25:58;;;;;;;2.95;0.52;;;;;;;7.28;100.00;101721.56;5020653;28;20057;-79
2021/04/03 09:29:07;;;;;;;1.00;0.50;;;;;;;7.29;100.00;101729.50;5022350;28;20060;-80
2021/04/03 09:32:13;;;;;;;4.10;1.33;;;;;;;7.27;100.00;101714.47;5019720;28;20056;-79
2021/04/03 09:35:27;;;;;;;1.85;0.50;;;;;;;7.24;100.00;101715.25;5012573;28;20077;-79
2021/04/03 09:38:37;;;;;;;0.40;0.32;;;;;;;7.27;100.00;101718.03;5013714;28;20425;-79
2021/04/03 09:41:52;;;;;;;0.50;0.50;;;;;;;7.32;100.00;101720.34;5023879;28;20073;-79
2021/04/03 09:44:58;;;;;;;11.05;2.42;;;;;;;7.34;100.00;101720.72;5013148;28;20061;-79
2021/04/03 09:48:02;;;;;;;6.15;0.95;;;;;;;7.40;100.00;101721.09;5013647;28;20079;-78
2021/04/03 09:51:06;;;;;;;11.80;1.25;;;;;;;7.43;100.00;101723.81;5013743;28;20057;-78
2021/04/03 09:54:10;;;;;;;1.15;0.77;;;;;;;7.53;100.00;101716.63;5009322;28;20065;-78
2021/04/03 09:57:15;;;;;;;8.35;1.65;;;;;;;7.57;100.00;101717.38;5008599;28;20077;-78
2021/04/03 10:00:19;;;;;;;4.88;0.85;;;;;;;7.66;100.00;101709.38;5013496;28;20076;-78
2021/04/03 10:03:23;;;;;;;1.65;0.52;;;;;;;7.85;100.00;101710.75;5012591;28;20057;-78
2021/04/03 10:06:27;;;;;;;1.10;1.00;;;;;;;7.99;100.00;101705.09;5012478;28;20046;-79
2021/04/03 10:09:31;;;;;;;8.75;0.70;;;;;;;8.05;100.00;101703.44;5013604;28;20637;-79
2021/04/03 10:12:35;;;;;;;2.17;1.25;;;;;;;8.09;100.00;101715.28;5012473;28;20065;-79
2021/04/03 10:15:38;;;;;;;3.35;0.50;;;;;;;8.10;100.00;101694.66;5013098;28;20065;-79
2021/04/03 10:18:42;;;;;;;7.00;1.30;;;;;;;8.16;100.00;101701.31;5013341;28;20418;-78
2021/04/03 10:21:45;;;;;;;4.10;1.13;;;;;;;8.14;100.00;101698.94;5021947;28;20064;-78
2021/04/03 10:24:49;;;;;;;0.60;0.52;;;;;;;8.10;100.00;101694.66;5025239;28;20072;-78
2021/04/03 10:27:54;;;;;;;7.18;0.98;;;;;;;7.96;100.00;101701.13;5025436;28;20489;-78
2021/04/03 10:30:57;;;;;;;6.28;0.77;;;;;;;7.75;100.00;101689.47;5032393;28;20061;-78
2021/04/03 10:34:01;;;;;;;0.47;0.47;;;;;;;7.61;100.00;101691.19;5027068;28;20064;-78
2021/04/03 10:37:05;;;;;;;4.50;1.35;;;;;;;7.51;100.00;101689.28;5032826;28;20076;-78
2021/04/03 10:40:09;;;;;;;7.43;0.95;;;;;;;7.61;100.00;101685.66;5034476;28;20057;-78
2021/04/03 10:43:12;;;;;;;4.47;0.80;;;;;;;7.59;100.00;101688.03;5032878;28;20068;-78
2021/04/03 10:46:16;;;;;;;1.23;0.65;;;;;;;7.97;100.00;101691.59;5031948;28;20061;-78
2021/04/03 10:49:22;;;;;;;3.95;0.80;;;;;;;8.49;100.00;101691.44;5031858;28;20061;-78
2021/04/03 10:52:25;;;;;;;10.55;1.42;;;;;;;8.76;100.00;101690.25;5033100;28;20057;-79
2021/04/03 10:55:31;;;;;;;3.40;0.40;;;;;;;8.78;100.00;101695.38;5031512;28;20056;-79
2021/04/03 10:58:34;;;;;;;2.17;0.60;;;;;;;8.66;100.00;101687.63;5013277;28;20060;-78
2021/04/03 11:01:38;;;;;;;8.43;2.05;;;;;;;8.42;100.00;101694.28;5012426;28;20072;-79
2021/04/03 11:04:41;;;;;;;0.95;0.50;;;;;;;8.43;100.00;101691.09;5012320;28;20065;-78
2021/04/03 11:07:44;;;;;;;1.58;0.55;;;;;;;8.60;100.00;101690.06;5020669;28;20065;-78
2021/04/03 11:10:48;;;;;;;2.83;0.63;;;;;;;8.76;100.00;101692.25;5024663;28;20064;-78
2021/04/03 11:13:51;;;;;;;4.95;0.90;;;;;;;8.86;100.00;101689.31;5024836;28;20069;-79
2021/04/03 11:16:54;;;;;;;0.73;0.52;;;;;;;8.96;100.00;101688.38;5024051;28;20056;-78
2021/04/03 11:19:58;;;;;;;10.75;0.82;;;;;;;9.49;100.00;101678.38;5025660;28;20060;-79
2021/04/03 11:23:01;;;;;;;3.15;1.15;;;;;;;9.94;100.00;101676.72;5026017;28;20057;-79
2021/04/03 11:26:05;;;;;;;2.28;0.43;;;;;;;10.19;100.00;101682.66;5031221;28;20059;-78
2021/04/03 11:29:08;;;;;;;2.40;0.90;;;;;;;10.16;100.00;101683.50;5026665;28;20076;-79
2021/04/03 11:32:13;;;;;;;0.77;0.70;;;;;;;9.75;100.00;101677.50;5025628;28;20061;-78
2021/04/03 11:35:18;;;;;;;1.75;0.28;;;;;;;9.41;100.00;101679.72;5027828;28;20532;-78
2021/04/03 11:38:21;;;;;;;2.05;0.65;;;;;;;9.33;100.00;101681.03;5030712;28;20060;-78
2021/04/03 11:41:25;;;;;;;0.25;0.20;;;;;;;9.35;100.00;101667.50;5030670;28;20064;-78
2021/04/03 11:44:28;;;;;;;2.35;0.60;;;;;;;9.54;100.00;101669.53;5031156;28;20069;-78
2021/04/03 11:47:32;;;;;;;5.93;0.82;;;;;;;9.65;100.00;101670.16;5031165;28;20056;-78
2021/04/03 11:50:36;;;;;;;4.57;0.85;;;;;;;9.66;100.00;101666.13;5031041;28;20057;-79
2021/04/03 11:53:39;;;;;;;3.60;0.38;;;;;;;9.78;100.00;101662.75;5031229;28;20065;-79
2021/04/03 11:56:44;;;;;;;4.95;0.60;;;;;;;9.84;100.00;101661.84;5021949;28;20533;-80
2021/04/03 11:59:48;;;;;;;2.05;1.10;;;;;;;9.88;100.00;101650.63;5030701;28;20076;-79
2021/04/03 12:02:51;;;;;;;10.20;0.93;;;;;;;10.04;100.00;101644.34;5031239;28;20069;-77
2021/04/03 12:05:55;;;;;;;4.85;0.93;;;;;;;10.10;100.00;101657.34;5030474;28;20049;-80
2021/04/03 12:08:58;;;;;;;3.60;0.85;;;;;;;10.22;100.00;101659.50;5030610;28;20056;-80
2021/04/03 12:12:02;;;;;;;1.58;0.82;;;;;;;10.30;100.00;101660.94;5029236;28;20414;-78
2021/04/03 12:15:11;;;;;;;1.20;0.90;;;;;;;10.46;100.00;101652.63;5030295;28;20064;-78
2021/04/03 12:18:14;;;;;;;1.75;0.80;;;;;;;10.55;100.00;101658.41;5026558;28;20616;-78
2021/04/03 12:21:18;;;;;;;0.90;0.40;;;;;;;10.15;100.00;101654.09;5013756;28;20060;-78
2021/04/03 12:24:21;;;;;;;2.20;0.60;;;;;;;9.95;100.00;101650.50;5004373;28;20065;-78
2021/04/03 12:27:25;;;;;;;12.88;1.33;;;;;;;9.80;100.00;101654.75;5025413;28;20052;-79
2021/04/03 12:30:29;;;;;;;6.32;1.33;;;;;;;9.59;100.00;101655.16;5018165;28;20068;-79
2021/04/03 12:33:32;;;;;;;3.72;0.93;;;;;;;9.70;100.00;101645.38;5022829;28;20061;-79
2021/04/03 12:36:36;;;;;;;0.90;0.47;;;;;;;9.87;100.00;101649.06;5029968;28;20052;-79
2021/04/03 12:39:40;;;;;;;5.40;0.90;;;;;;;9.80;100.00;101652.78;5030297;28;20509;-79
2021/04/03 12:42:43;;;;;;;1.83;0.90;;;;;;;10.04;100.00;101647.13;5029963;28;20060;-78
2021/04/03 12:45:47;;;;;;;3.20;0.90;;;;;;;10.26;100.00;101648.31;5029851;28;20069;-78
2021/04/03 12:48:50;;;;;;;9.82;0.85;;;;;;;10.37;100.00;101644.06;5029888;28;20530;-79
2021/04/03 12:51:54;;;;;;;3.55;0.70;;;;;;;10.68;100.00;101635.44;5029979;28;20064;-79
2021/04/03 12:54:58;;;;;;;3.97;0.55;;;;;;;10.97;100.00;101630.75;5029096;28;20057;-79
2021/04/03 12:58:01;;;;;;;0.98;0.50;;;;;;;11.03;100.00;101634.59;5030202;28;20061;-79
2021/04/03 13:01:05;;;;;;;0.98;0.90;;;;;;;11.08;100.00;101626.50;5015682;28;20061;-80
2021/04/03 13:04:09;;;;;;;9.05;1.20;;;;;;;11.16;100.00;101627.09;5024947;28;20060;-80
2021/04/03 13:07:12;;;;;;;1.88;1.10;;;;;;;11.23;100.00;101626.94;5029035;28;20056;-84
2021/04/03 13:10:16;;;;;;;4.72;0.70;;;;;;;11.31;100.00;101628.31;5028993;28;20061;-80
2021/04/03 13:13:19;;;;;;;10.35;1.02;;;;;;;11.41;100.00;101622.44;5029733;28;20068;-78
2021/04/03 13:16:23;;;;;;;2.53;1.48;;;;;;;11.29;100.00;101614.00;5033826;28;20050;-79
2021/04/03 13:19:27;;;;;;;13.90;1.27;;;;;;;11.19;100.00;101626.25;5034071;28;20056;-79
2021/04/03 13:22:30;;;;;;;1.02;0.45;;;;;;;11.01;100.00;101609.16;5033927;28;20049;-81
2021/04/03 13:25:34;;;;;;;1.27;0.50;;;;;;;11.11;100.00;101608.13;5032864;28;20417;-80
2021/04/03 13:28:37;;;;;;;3.95;0.90;;;;;;;11.16;100.00;101611.16;5033724;28;20520;-81
2021/04/03 13:31:41;;;;;;;4.15;0.60;;;;;;;11.09;100.00;101599.38;5033957;28;20069;-81
2021/04/03 13:34:45;;;;;;;7.97;0.75;;;;;;;11.15;100.00;101608.81;5032716;28;20061;-82
2021/04/03 13:37:48;;;;;;;4.05;1.30;;;;;;;11.25;100.00;101600.16;5030631;28;20179;-79
2021/04/03 13:40:52;;;;;;;2.03;1.33;;;;;;;11.33;100.00;101597.97;5032489;28;20065;-81
2021/04/03 13:43:56;;;;;;;3.17;0.82;;;;;;;11.33;100.00;101593.19;5033183;28;20057;-81
2021/04/03 13:47:03;;;;;;;1.95;0.57;;;;;;;11.32;100.00;101602.78;5033306;28;20061;-81
2021/04/03 13:50:07;;;;;;;1.60;0.43;;;;;;;11.15;100.00;101594.88;5033050;28;20088;-82
2021/04/03 13:53:10;;;;;;;4.97;0.57;;;;;;;10.98;100.00;101588.50;5031638;28;20056;-79
2021/04/03 13:56:14;;;;;;;2.65;0.95;;;;;;;10.96;100.00;101579.03;5031690;28;20060;-83
2021/04/03 13:59:17;;;;;;;4.47;0.70;;;;;;;10.92;100.00;101590.25;5032133;28;20072;-82
2021/04/03 14:02:21;;;;;;;3.92;0.30;;;;;;;10.93;100.00;101579.91;5032856;28;20052;-82
2021/04/03 14:05:24;;;;;;;0.43;0.40;;;;;;;10.89;100.00;101568.06;5032588;28;20147;-80
2021/04/03 14:08:28;;;;;;;15.43;1.00;;;;;;;10.93;100.00;101568.75;5032917;28;20516;-80
2021/04/03 14:11:32;;;;;;;6.68;1.30;;;;;;;10.99;100.00;101565.00;5032791;28;20045;-79
2021/04/03 14:14:35;;;;;;;1.85;0.63;;;;;;;10.96;100.00;101556.72;5032182;28;20065;-80
2021/04/03 14:17:41;;;;;;;1.42;0.77;;;;;;;10.84;100.00;101560.22;5030239;28;20064;-81
2021/04/03 14:20:44;;;;;;;1.63;0.73;;;;;;;10.90;100.00;101552.88;5030815;28;20069;-82